Time;durP1;ratioP1;P1;durP2;ratioP2;P2;SDS_P1;SDS_P2;PMS_P1;PMS_P2;Temp;Humidity;BMP_temperature;BMP_pressure;BME280_temperature;BME280_humidity;BME280_pressure;Samples;Min_cycle;Max_cycle;Signal;HPM_P1;HPM_P2
2023/12/19 00:01:31;;;;;;;15.15;8.98;;;;;;;3.13;80.06;97876.56;6176633;23;20021;-87
2023/12/19 00:04:00;;;;;;;13.00;8.23;;;;;;;3.15;79.79;97871.28;6175713;23;20022;-85
2023/12/19 00:06:32;;;;;;;15.98;9.60;;;;;;;3.15;80.51;97874.72;6172418;23;20025;-85
2023/12/19 00:09:02;;;;;;;15.30;10.05;;;;;;;3.17;80.33;97870.28;6173951;23;20017;-85
2023/12/19 00:11:31;;;;;;;15.10;8.90;;;;;;;3.15;78.47;97853.25;6174272;23;20040;-88
2023/12/19 00:14:04;;;;;;;16.23;10.25;;;;;;;3.15;80.09;97866.97;6175867;23;20025;-85
2023/12/19 00:16:37;;;;;;;14.68;9.13;;;;;;;3.13;79.88;97866.25;6171658;23;20022;-86
2023/12/19 00:19:12;;;;;;;13.90;8.50;;;;;;;3.13;78.45;97876.56;6175801;23;20028;-85
2023/12/19 00:21:50;;;;;;;13.63;8.23;;;;;;;3.14;77.82;97867.88;6149295;23;20029;-85
2023/12/19 00:24:25;;;;;;;14.70;9.30;;;;;;;3.13;78.30;97870.56;6177572;23;20048;-88
2023/12/19 00:29:59;;;;;;;12.05;7.82;;;;;;;3.18;78.59;97869.34;6178194;23;20048;-87
2023/12/19 00:35:27;;;;;;;10.55;7.65;;;;;;;3.12;79.45;97876.66;6179777;23;20021;-85
2023/12/19 00:38:17;;;;;;;11.25;7.57;;;;;;;3.13;78.62;97878.31;6179506;23;20021;-85
2023/12/19 00:40:54;;;;;;;10.88;7.43;;;;;;;3.13;78.55;97868.84;6180713;23;20076;-85
2023/12/19 00:43:40;;;;;;;11.77;8.43;;;;;;;3.11;78.41;97855.22;6154112;23;20009;-85
2023/12/19 00:46:18;;;;;;;11.23;7.95;;;;;;;3.06;77.81;97844.38;6153803;23;20033;-85
2023/12/19 00:49:04;;;;;;;13.65;8.48;;;;;;;3.06;78.01;97832.34;6175985;23;20029;-85
2023/12/19 00:52:04;;;;;;;14.43;8.85;;;;;;;3.02;76.63;97812.03;6156035;23;20009;-85
2023/12/19 00:54:53;;;;;;;12.00;8.02;;;;;;;2.98;76.31;97795.94;6178282;23;20021;-86
2023/12/19 00:57:48;;;;;;;12.45;7.90;;;;;;;2.95;76.36;97785.00;6177930;23;20084;-87
2023/12/19 01:00:30;;;;;;;10.07;6.82;;;;;;;2.90;75.81;97782.75;6178186;23;20022;-86
2023/12/19 01:03:06;;;;;;;9.77;7.05;;;;;;;2.84;75.66;97784.00;6178702;23;20040;-84
2023/12/19 01:05:43;;;;;;;9.60;6.57;;;;;;;2.81;75.72;97793.69;6180192;23;20464;-85
2023/12/19 01:08:16;;;;;;;9.85;7.07;;;;;;;2.78;75.07;97799.06;6180801;23;20021;-86
2023/12/19 01:10:55;;;;;;;10.55;7.57;;;;;;;2.76;74.67;97799.16;6154099;23;20021;-85
2023/12/19 01:13:35;;;;;;;10.60;7.60;;;;;;;2.75;75.21;97801.81;6156983;23;20032;-87
2023/12/19 01:16:09;;;;;;;9.60;6.75;;;;;;;2.74;75.63;97793.28;6178732;23;20021;-84
2023/12/19 01:18:43;;;;;;;10.30;6.38;;;;;;;2.73;75.55;97791.59;6178388;23;20522;-85
2023/12/19 01:21:22;;;;;;;9.77;6.63;;;;;;;2.72;75.62;97784.81;6177475;23;20021;-85
2023/12/19 01:24:00;;;;;;;11.02;6.90;;;;;;;2.71;75.76;97787.50;6182311;23;20021;-85
2023/12/19 01:26:35;;;;;;;8.50;6.07;;;;;;;2.71;74.60;97793.47;6182032;23;20032;-86
2023/12/19 01:29:10;;;;;;;7.70;5.57;;;;;;;2.68;75.01;97798.81;6156317;23;20049;-86
2023/12/19 03:04:56;;;;;;;12.23;7.18;;;;;;;1.84;74.30;97764.00;6071855;23;20086;-83
2023/12/19 03:07:25;;;;;;;10.52;7.13;;;;;;;1.84;74.26;97759.69;6177242;23;20442;-83
2023/12/19 03:09:53;;;;;;;10.52;6.40;;;;;;;1.84;74.01;97751.13;6177381;23;20026;-83
2023/12/19 03:12:21;;;;;;;9.23;6.63;;;;;;;1.82;73.47;97742.69;6177582;23;20073;-83
2023/12/19 03:14:49;;;;;;;9.80;6.50;;;;;;;1.80;73.11;97734.25;6177741;23;20069;-83
2023/12/19 03:17:17;;;;;;;14.80;5.70;;;;;;;1.77;73.82;97734.44;6177216;23;20041;-84
2023/12/19 03:54:11;;;;;;;9.85;5.68;;;;;;;2.04;74.70;97717.19;6188701;23;20048;-80
2023/12/19 04:09:23;;;;;;;8.80;5.97;;;;;;;1.95;71.24;97728.09;6171355;23;20009;-79
2023/12/19 04:29:55;;;;;;;10.43;6.57;;;;;;;1.97;73.94;97726.25;6161949;23;20052;-81
2023/12/19 04:32:30;;;;;;;10.88;7.25;;;;;;;1.88;73.55;97726.88;6166331;23;20021;-81
2023/12/19 04:38:41;;;;;;;8.75;6.40;;;;;;;1.77;74.04;97719.84;6170679;23;20028;-84
2023/12/19 04:48:46;;;;;;;9.32;6.47;;;;;;;1.60;74.81;97692.63;6175597;23;20029;-82
2023/12/19 04:51:22;;;;;;;8.57;6.10;;;;;;;1.56;72.62;97678.31;6175613;23;20048;-81
2023/12/19 04:53:53;;;;;;;9.32;6.20;;;;;;;1.53;72.54;97678.53;6174974;23;20017;-81
2023/12/19 04:56:27;;;;;;;10.55;6.68;;;;;;;1.54;72.91;97679.34;6176518;23;20044;-81
2023/12/19 05:46:03;;;;;;;13.02;7.95;;;;;;;1.71;73.46;97639.69;6180972;23;20112;-81
2023/12/19 05:49:08;;;;;;;9.80;7.10;;;;;;;1.73;76.88;97640.38;6200076;23;20463;-82
2023/12/19 05:52:50;;;;;;;11.10;8.25;;;;;;;1.76;73.52;97630.72;6182621;23;20022;-82
2023/12/19 05:59:45;;;;;;;7.30;4.75;;;;;;;1.74;71.90;97631.75;6128481;23;20025;-81
2023/12/19 06:02:54;;;;;;;8.20;4.93;;;;;;;1.73;72.29;97635.22;6127658;23;20028;-81
2023/12/19 06:09:37;;;;;;;6.30;4.70;;;;;;;1.71;71.92;97622.47;6149867;23;20073;-81
2023/12/19 06:31:54;;;;;;;15.65;6.07;;;;;;;1.62;70.51;97610.25;6003109;24;20167;-81
2023/12/19 06:34:37;;;;;;;8.80;6.55;;;;;;;1.56;70.96;97601.16;6029738;23;20113;-81
2023/12/19 06:37:50;;;;;;;9.25;5.80;;;;;;;1.56;71.42;97619.16;6118610;23;20384;-81
2023/12/19 07:05:56;;;;;;;9.35;6.03;;;;;;;1.44;71.64;97615.66;6199611;22;20032;-81
2023/12/19 07:08:25;;;;;;;14.50;6.18;;;;;;;1.43;71.54;97614.00;6193019;23;20025;-81
2023/12/19 07:11:00;;;;;;;7.22;5.55;;;;;;;1.46;72.11;97612.97;6193193;23;20027;-81
2023/12/19 07:13:32;;;;;;;9.63;6.15;;;;;;;1.50;72.16;97619.56;6194342;23;20091;-81
2023/12/19 07:16:21;;;;;;;9.38;7.07;;;;;;;1.53;73.76;97611.66;6194284;23;20478;-81
2023/12/19 07:18:58;;;;;;;12.07;7.20;;;;;;;1.59;72.43;97605.28;6194638;23;20021;-81
2023/12/19 07:21:35;;;;;;;13.27;7.32;;;;;;;1.61;73.44;97604.25;6195720;23;20097;-81
2023/12/19 07:24:12;;;;;;;13.30;7.07;;;;;;;1.62;72.87;97608.47;6197366;23;20027;-81
2023/12/19 07:26:42;;;;;;;11.07;7.03;;;;;;;1.63;73.90;97612.69;6197276;23;20017;-81
2023/12/19 07:29:14;;;;;;;12.65;6.43;;;;;;;1.68;73.08;97616.72;6195745;23;20017;-81
2023/12/19 07:31:49;;;;;;;9.10;6.25;;;;;;;1.68;72.13;97604.66;6194918;23;20078;-81
2023/12/19 07:34:35;;;;;;;12.85;7.95;;;;;;;1.70;73.04;97604.56;6198079;23;20053;-80
2023/12/19 07:37:11;;;;;;;14.07;9.00;;;;;;;1.73;73.73;97612.91;6196570;23;20055;-81
2023/12/19 07:39:40;;;;;;;13.88;8.45;;;;;;;1.73;74.41;97596.63;6191562;23;20075;-78
2023/12/19 07:42:07;;;;;;;13.85;9.23;;;;;;;1.71;74.37;97598.53;6187647;23;20021;-78
2023/12/19 07:44:38;;;;;;;19.35;9.77;;;;;;;1.72;75.00;97589.88;6191302;23;20029;-81
2023/12/19 07:47:07;;;;;;;14.65;9.57;;;;;;;1.77;75.58;97598.09;6190785;23;20021;-80
2023/12/19 07:49:35;;;;;;;15.38;10.88;;;;;;;1.81;76.38;97607.25;6188854;23;20021;-80
2023/12/19 07:52:04;;;;;;;13.05;8.48;;;;;;;1.83;75.95;97606.22;6189340;23;20024;-80
2023/12/19 07:54:31;;;;;;;12.10;8.52;;;;;;;1.83;74.50;97593.34;6188532;23;20033;-80
2023/12/19 07:56:59;;;;;;;14.00;9.10;;;;;;;1.86;74.57;97592.34;6189143;23;20032;-80
2023/12/19 07:59:27;;;;;;;11.60;7.63;;;;;;;1.84;74.20;97597.59;6188580;23;20390;-80
2023/12/19 08:01:55;;;;;;;10.82;8.25;;;;;;;1.87;74.92;97606.03;6189741;23;20467;-80
2023/12/19 08:04:24;;;;;;;13.60;8.55;;;;;;;1.91;76.56;97608.28;6188836;23;20021;-80
2023/12/19 08:06:52;;;;;;;10.95;7.45;;;;;;;1.96;76.25;97611.38;6189247;23;20075;-80
2023/12/19 08:09:20;;;;;;;13.00;8.95;;;;;;;2.01;76.09;97614.47;6188890;23;20013;-80
2023/12/19 08:11:48;;;;;;;12.55;8.20;;;;;;;2.10;77.23;97619.91;6189337;23;20021;-80
2023/12/19 08:14:16;;;;;;;12.40;7.95;;;;;;;2.14;76.79;97616.19;6189521;23;20036;-80
2023/12/19 08:16:43;;;;;;;12.40;8.73;;;;;;;2.19;75.66;97614.97;6189264;23;20020;-81
2023/12/19 08:19:11;;;;;;;16.65;10.60;;;;;;;2.22;73.99;97612.19;6188494;23;20024;-80
2023/12/19 08:21:49;;;;;;;15.85;9.35;;;;;;;2.23;72.71;97603.56;6188657;23;20017;-79
2023/12/19 08:24:17;;;;;;;14.75;10.02;;;;;;;2.27;72.66;97606.72;6187370;23;20017;-82
2023/12/19 08:26:48;;;;;;;18.33;10.73;;;;;;;2.30;71.65;97605.72;6184518;23;20025;-81
2023/12/19 08:29:16;;;;;;;19.02;9.85;;;;;;;2.33;71.82;97614.03;6180071;23;20077;-80
2023/12/19 08:31:45;;;;;;;20.75;10.82;;;;;;;2.40;71.72;97620.41;6184525;23;20467;-81
2023/12/19 08:34:16;;;;;;;17.58;11.90;;;;;;;2.49;73.37;97618.94;6185320;23;20028;-82
2023/12/19 08:36:44;;;;;;;13.50;9.90;;;;;;;2.58;76.15;97623.47;6184323;23;20029;-81
2023/12/19 08:39:13;;;;;;;15.30;8.60;;;;;;;2.64;75.59;97617.06;6185415;23;20032;-79
2023/12/19 08:41:45;;;;;;;14.02;9.82;;;;;;;2.72;75.01;97619.94;6186936;23;20166;-79
2023/12/19 08:44:13;;;;;;;14.93;9.52;;;;;;;2.79;74.34;97620.31;6186763;23;20021;-80
2023/12/19 08:46:40;;;;;;;14.82;9.25;;;;;;;2.83;73.32;97601.13;6187912;23;20083;-80
2023/12/19 08:49:08;;;;;;;14.18;7.90;;;;;;;2.87;71.79;97607.72;6185623;23;20013;-80
2023/12/19 08:51:36;;;;;;;11.98;7.82;;;;;;;2.91;71.08;97598.84;6186340;23;20100;-78
2023/12/19 08:54:04;;;;;;;17.63;9.45;;;;;;;2.99;70.57;97598.28;6185373;23;20031;-78
2023/12/19 08:56:33;;;;;;;21.13;10.20;;;;;;;3.06;71.70;97602.06;6186039;23;20388;-78
2023/12/19 08:59:01;;;;;;;14.77;7.78;;;;;;;3.12;72.43;97606.78;6186354;23;20084;-80
2023/12/19 09:01:28;;;;;;;10.05;6.70;;;;;;;3.21;71.20;97616.41;6203401;23;20028;-80
2023/12/19 09:03:56;;;;;;;15.32;6.63;;;;;;;3.30;73.04;97614.94;6201567;23;20084;-81
2023/12/19 09:06:24;;;;;;;11.90;7.05;;;;;;;3.38;72.75;97606.66;6189894;23;20489;-81
2023/12/19 09:08:52;;;;;;;15.35;7.88;;;;;;;3.45;72.66;97592.38;6185331;23;20026;-81
2023/12/19 09:11:19;;;;;;;14.43;7.68;;;;;;;3.52;72.36;97591.00;6184625;23;20424;-81
2023/12/19 09:13:48;;;;;;;11.88;7.68;;;;;;;3.59;71.86;97592.19;6184485;23;20021;-81
2023/12/19 09:16:16;;;;;;;10.15;7.25;;;;;;;3.64;72.97;97582.34;6184685;23;20071;-81
2023/12/19 09:18:44;;;;;;;8.77;6.05;;;;;;;3.68;73.46;97565.69;6184186;23;20045;-80
2023/12/19 09:21:12;;;;;;;10.55;6.30;;;;;;;3.72;72.48;97559.38;6184524;23;20048;-81
2023/12/19 09:23:40;;;;;;;8.45;6.85;;;;;;;3.76;73.49;97557.41;6184207;23;20490;-81
2023/12/19 09:26:08;;;;;;;9.18;6.25;;;;;;;3.83;75.30;97565.50;6184227;23;20024;-80
2023/12/19 09:28:36;;;;;;;10.57;6.40;;;;;;;3.88;75.36;97568.53;6183931;23;20021;-80
2023/12/19 09:31:07;;;;;;;9.65;6.35;;;;;;;3.93;74.97;97561.25;6185797;23;20371;-78
2023/12/19 09:33:37;;;;;;;9.65;5.85;;;;;;;3.97;75.33;97549.75;6186170;23;20021;-78
2023/12/19 09:36:06;;;;;;;11.52;6.43;;;;;;;3.98;73.17;97543.69;6186288;23;20025;-78
2023/12/19 09:38:34;;;;;;;10.20;7.32;;;;;;;4.02;74.88;97534.75;6185635;23;20035;-76
2023/12/19 09:41:02;;;;;;;11.98;6.72;;;;;;;4.07;72.75;97535.22;6185255;23;20076;-78
2023/12/19 09:43:31;;;;;;;10.55;6.97;;;;;;;4.08;69.88;97534.28;6186489;23;20055;-78
2023/12/19 09:46:01;;;;;;;11.32;6.28;;;;;;;4.10;69.35;97527.22;6185548;23;20028;-78
2023/12/19 09:48:33;;;;;;;10.55;7.32;;;;;;;4.15;71.91;97526.06;6185090;23;20096;-78
2023/12/19 09:51:04;;;;;;;10.35;6.38;;;;;;;4.20;70.37;97526.50;6185362;23;20031;-78
2023/12/19 09:53:34;;;;;;;11.38;5.85;;;;;;;4.24;69.23;97522.75;6185974;23;20533;-78
2023/12/19 09:56:09;;;;;;;8.35;5.75;;;;;;;4.28;67.71;97521.59;6187401;23;20133;-78
2023/12/19 09:58:39;;;;;;;8.75;5.25;;;;;;;4.34;67.31;97521.09;6187051;23;20328;-78
2023/12/19 10:01:08;;;;;;;8.73;5.68;;;;;;;4.41;66.81;97508.53;6186838;23;20021;-78
2023/12/19 10:03:38;;;;;;;8.90;6.10;;;;;;;4.50;69.81;97506.06;6187682;23;20100;-77
2023/12/19 10:06:06;;;;;;;10.23;7.03;;;;;;;4.56;68.63;97491.81;6187521;23;20044;-76
2023/12/19 10:08:34;;;;;;;9.60;6.95;;;;;;;4.59;67.97;97475.25;6186622;23;20100;-76
2023/12/19 10:11:03;;;;;;;10.07;6.32;;;;;;;4.66;66.42;97481.59;6187229;23;20028;-75
2023/12/19 10:13:32;;;;;;;11.98;7.90;;;;;;;4.70;65.54;97478.63;6187291;23;20027;-76
2023/12/19 10:16:01;;;;;;;12.05;7.25;;;;;;;4.78;64.79;97470.25;6187630;23;20351;-77
2023/12/19 10:18:56;;;;;;;10.25;7.47;;;;;;;4.89;63.27;97464.19;6186368;23;20100;-76
2023/12/19 10:21:28;;;;;;;12.05;7.72;;;;;;;5.01;65.43;97464.97;6186896;23;20025;-76
2023/12/19 10:24:06;;;;;;;11.23;7.53;;;;;;;5.13;71.62;97474.31;6186865;23;20104;-78
2023/12/19 10:26:34;;;;;;;9.02;6.75;;;;;;;5.24;71.97;97478.59;6186695;23;20025;-77
2023/12/19 10:29:01;;;;;;;8.90;6.65;;;;;;;5.34;72.95;97472.53;6186475;23;20080;-77
2023/12/19 10:31:29;;;;;;;9.75;6.78;;;;;;;5.41;70.92;97466.84;6186868;23;20029;-77
2023/12/19 10:33:58;;;;;;;10.30;6.45;;;;;;;5.47;68.39;97468.94;6187080;23;20355;-77
2023/12/19 10:36:28;;;;;;;9.30;6.47;;;;;;;5.51;66.62;97462.53;6186861;23;20076;-77
2023/12/19 10:38:57;;;;;;;11.20;7.30;;;;;;;5.58;68.62;97458.50;6186448;23;20017;-77
2023/12/19 10:41:26;;;;;;;11.50;8.30;;;;;;;5.67;69.20;97462.91;6186970;23;20502;-77
2023/12/19 10:43:56;;;;;;;10.43;6.55;;;;;;;5.72;67.36;97460.72;6187039;23;20048;-77
2023/12/19 10:46:25;;;;;;;11.57;5.78;;;;;;;5.77;66.73;97456.00;6186533;23;20025;-77
2023/12/19 10:48:54;;;;;;;7.68;5.35;;;;;;;5.83;66.95;97446.88;6186385;23;20029;-77
2023/12/19 10:51:32;;;;;;;9.02;6.07;;;;;;;5.89;72.38;97443.75;6192372;23;20013;-77
2023/12/19 10:54:09;;;;;;;7.10;5.60;;;;;;;5.94;71.31;97426.09;6194764;23;20510;-77
2023/12/19 10:56:52;;;;;;;6.40;5.70;;;;;;;5.99;69.80;97430.88;6190828;23;20021;-77
2023/12/19 10:59:29;;;;;;;8.88;6.25;;;;;;;6.06;71.91;97434.59;6186277;23;20096;-77
2023/12/19 11:02:03;;;;;;;8.35;5.78;;;;;;;6.15;73.87;97438.97;6186639;23;20025;-77
2023/12/19 11:04:33;;;;;;;9.73;7.13;;;;;;;6.22;74.44;97441.03;6186501;23;20031;-77
2023/12/19 11:07:11;;;;;;;8.90;5.97;;;;;;;6.25;67.39;97431.19;6186470;23;20538;-77
2023/12/19 11:09:41;;;;;;;7.35;5.65;;;;;;;6.28;70.01;97428.34;6185495;23;20467;-77
2023/12/19 11:12:09;;;;;;;7.85;6.00;;;;;;;6.33;68.08;97417.59;6186119;23;20031;-78
2023/12/19 11:14:37;;;;;;;7.40;5.40;;;;;;;6.37;68.88;97424.13;6186509;23;20027;-77
2023/12/19 11:17:10;;;;;;;9.13;6.32;;;;;;;6.41;66.56;97420.31;6186201;23;20021;-77
2023/12/19 11:19:44;;;;;;;10.20;5.50;;;;;;;6.44;64.58;97409.69;6186274;23;20401;-77
2023/12/19 11:22:21;;;;;;;8.80;5.80;;;;;;;6.52;63.55;97407.22;6186770;23;20053;-78
2023/12/19 11:24:56;;;;;;;10.55;6.05;;;;;;;6.63;66.54;97410.66;6186345;23;20075;-77
2023/12/19 11:27:33;;;;;;;7.00;5.32;;;;;;;6.71;67.22;97405.56;6186151;23;20026;-76
2023/12/19 11:30:00;;;;;;;7.22;5.53;;;;;;;6.77;66.49;97397.25;6184723;23;20048;-76
2023/12/19 11:32:38;;;;;;;7.78;5.63;;;;;;;6.82;69.80;97397.66;6181684;23;20557;-77
2023/12/19 11:35:13;;;;;;;8.63;5.95;;;;;;;6.85;64.29;97392.19;6185611;23;20047;-77
2023/12/19 11:37:44;;;;;;;9.05;6.43;;;;;;;6.90;65.38;97389.19;6185881;23;20083;-76
2023/12/19 11:40:37;;;;;;;8.00;6.65;;;;;;;6.96;68.46;97383.44;6184938;23;20019;-75
2023/12/19 11:43:04;;;;;;;7.97;6.38;;;;;;;6.99;64.67;97372.78;6185384;23;20075;-76
2023/12/19 11:45:40;;;;;;;12.77;7.22;;;;;;;7.01;62.52;97371.69;6185785;23;20025;-77
2023/12/19 11:48:36;;;;;;;8.82;7.82;;;;;;;7.08;68.99;97365.94;6184604;23;20459;-77
2023/12/19 11:51:07;;;;;;;9.02;7.13;;;;;;;7.12;69.83;97369.88;6183869;23;20095;-78
2023/12/19 11:53:37;;;;;;;8.77;7.38;;;;;;;7.13;69.99;97354.19;6185281;23;20025;-77
2023/12/19 11:56:08;;;;;;;9.80;7.22;;;;;;;7.16;69.21;97345.28;6184914;23;20052;-77
2023/12/19 11:58:36;;;;;;;9.23;7.72;;;;;;;7.18;70.27;97345.97;6184599;23;20032;-77
2023/12/19 12:01:08;;;;;;;9.20;7.70;;;;;;;7.22;70.10;97342.13;6187510;23;20025;-77
2023/12/19 12:03:37;;;;;;;8.27;6.68;;;;;;;7.22;66.46;97342.94;6185118;23;20075;-77
2023/12/19 12:06:05;;;;;;;8.60;6.72;;;;;;;7.25;68.16;97341.84;6184773;23;20025;-78
2023/12/19 12:08:33;;;;;;;9.57;7.07;;;;;;;7.30;67.91;97347.41;6183982;23;20025;-77
2023/12/19 12:11:04;;;;;;;11.30;6.68;;;;;;;7.35;69.90;97347.81;6180790;23;20025;-77
2023/12/19 12:13:34;;;;;;;7.43;6.32;;;;;;;7.46;66.75;97343.41;6185322;23;20017;-77
2023/12/19 12:16:02;;;;;;;7.22;6.00;;;;;;;7.57;64.98;97351.00;6184567;23;20025;-77
2023/12/19 12:18:31;;;;;;;7.22;5.45;;;;;;;7.66;63.65;97354.53;6184835;23;20017;-77
2023/12/19 12:21:07;;;;;;;7.20;5.55;;;;;;;7.73;61.20;97355.56;6185039;23;20017;-77
2023/12/19 12:23:35;;;;;;;6.15;5.45;;;;;;;7.77;61.58;97354.31;6185336;23;20084;-77
2023/12/19 12:26:05;;;;;;;7.28;5.85;;;;;;;7.83;64.57;97344.16;6188635;23;20025;-78
2023/12/19 12:28:34;;;;;;;10.27;6.70;;;;;;;7.90;62.15;97341.00;6206365;23;20012;-77
2023/12/19 12:31:03;;;;;;;6.53;5.38;;;;;;;7.94;63.55;97329.34;6206708;23;20083;-77
2023/12/19 12:33:35;;;;;;;8.02;6.13;;;;;;;7.97;61.80;97327.25;6186840;23;20021;-78
2023/12/19 12:36:10;;;;;;;6.82;5.72;;;;;;;8.00;64.24;97319.19;6185102;23;20086;-78
2023/12/19 12:38:38;;;;;;;8.68;6.80;;;;;;;8.03;61.54;97313.69;6185137;23;20032;-78
2023/12/19 12:41:07;;;;;;;10.75;7.20;;;;;;;7.99;60.01;97314.13;6185268;23;20028;-77
2023/12/19 12:43:39;;;;;;;11.07;6.90;;;;;;;7.91;58.96;97295.84;6185552;23;20028;-78
2023/12/19 12:46:09;;;;;;;14.73;7.80;;;;;;;7.78;58.45;97301.41;6185158;23;20025;-77
2023/12/19 12:48:38;;;;;;;13.70;7.72;;;;;;;7.67;59.38;97288.63;6184935;23;20257;-78
2023/12/19 12:51:06;;;;;;;11.75;7.32;;;;;;;7.57;59.65;97280.91;6185495;23;20387;-78
2023/12/19 12:53:35;;;;;;;12.45;7.55;;;;;;;7.46;59.71;97281.13;6185227;23;20021;-78
2023/12/19 12:56:09;;;;;;;9.68;7.68;;;;;;;7.37;59.45;97288.00;6184865;23;20024;-78
2023/12/19 12:58:37;;;;;;;8.90;7.82;;;;;;;7.35;63.96;97285.53;6184480;23;20017;-78
2023/12/19 13:01:05;;;;;;;12.32;8.00;;;;;;;7.37;63.53;97275.03;6184756;23;20094;-77
2023/12/19 13:03:34;;;;;;;10.13;8.07;;;;;;;7.38;63.64;97268.84;6184364;23;20025;-78
2023/12/19 13:06:04;;;;;;;11.70;8.63;;;;;;;7.40;64.09;97257.34;6184324;23;20027;-78
2023/12/19 13:08:34;;;;;;;9.88;8.07;;;;;;;7.37;62.24;97247.28;6184537;23;20017;-77
2023/12/19 13:11:03;;;;;;;13.85;8.63;;;;;;;7.33;61.91;97239.94;6184938;23;20017;-78
2023/12/19 13:13:32;;;;;;;11.95;9.50;;;;;;;7.30;65.39;97246.19;6184665;23;20021;-78
2023/12/19 13:16:00;;;;;;;11.20;9.32;;;;;;;7.33;65.77;97234.75;6184658;23;20064;-78
2023/12/19 13:18:28;;;;;;;13.77;8.55;;;;;;;7.29;62.92;97234.19;6185007;23;20028;-78
2023/12/19 13:20:56;;;;;;;11.60;9.32;;;;;;;7.28;65.68;97242.97;6184993;23;20055;-78
2023/12/19 13:23:24;;;;;;;10.65;8.75;;;;;;;7.30;64.38;97230.63;6184973;23;20024;-78
2023/12/19 13:25:53;;;;;;;12.45;9.35;;;;;;;7.28;63.73;97227.41;6184569;23;20025;-78
2023/12/19 13:28:21;;;;;;;13.43;8.50;;;;;;;7.25;63.62;97232.03;6189182;23;20032;-78
2023/12/19 13:30:50;;;;;;;12.43;9.30;;;;;;;7.20;62.26;97214.31;6186733;23;20025;-78
2023/12/19 13:33:17;;;;;;;11.10;9.00;;;;;;;7.15;64.61;97211.31;6186544;23;20471;-78
2023/12/19 13:35:45;;;;;;;13.43;9.73;;;;;;;7.11;66.66;97221.19;6186724;23;20021;-78
2023/12/19 13:38:13;;;;;;;11.77;9.27;;;;;;;7.09;64.97;97215.34;6186815;23;20028;-78
2023/12/19 13:40:41;;;;;;;13.48;9.32;;;;;;;7.00;63.62;97204.03;6187156;23;20021;-78
2023/12/19 13:43:09;;;;;;;12.68;9.80;;;;;;;6.96;65.89;97200.09;6187139;23;20049;-77
2023/12/19 13:45:37;;;;;;;12.65;9.45;;;;;;;6.91;63.66;97199.72;6186599;23;20048;-78
2023/12/19 13:48:07;;;;;;;13.65;10.57;;;;;;;6.85;66.54;97195.13;6186320;23;20021;-77
2023/12/19 13:50:36;;;;;;;12.52;10.00;;;;;;;6.83;67.41;97180.66;6186245;23;20027;-77
2023/12/19 13:53:04;;;;;;;13.38;10.75;;;;;;;6.83;70.04;97191.84;6187157;23;20021;-78
2023/12/19 13:55:34;;;;;;;15.85;11.38;;;;;;;6.84;71.18;97190.88;6186548;23;20354;-78
2023/12/19 13:58:02;;;;;;;14.93;10.70;;;;;;;6.84;71.65;97198.66;6186416;23;20481;-77
2023/12/19 14:00:31;;;;;;;15.80;11.38;;;;;;;6.83;71.22;97197.03;6186745;23;20021;-78
2023/12/19 14:02:59;;;;;;;18.52;11.18;;;;;;;6.83;68.96;97202.22;6185935;23;20073;-78
2023/12/19 14:05:29;;;;;;;17.13;12.13;;;;;;;6.80;70.08;97187.75;6186641;23;20024;-78
2023/12/19 14:07:57;;;;;;;17.35;11.32;;;;;;;6.80;70.46;97192.13;6186380;23;20041;-78
2023/12/19 14:10:25;;;;;;;17.13;11.13;;;;;;;6.77;68.39;97193.22;6187050;23;20017;-78
2023/12/19 14:12:52;;;;;;;14.98;10.63;;;;;;;6.75;69.39;97204.69;6186520;23;20119;-78
2023/12/19 14:15:20;;;;;;;11.75;9.38;;;;;;;6.70;70.31;97196.53;6186828;23;20067;-78
2023/12/19 14:17:48;;;;;;;12.57;9.48;;;;;;;6.68;68.73;97194.06;6185750;23;20013;-78
2023/12/19 14:20:16;;;;;;;11.70;9.50;;;;;;;6.67;70.61;97191.63;6186307;23;20025;-78
2023/12/19 14:22:45;;;;;;;16.17;10.40;;;;;;;6.68;72.65;97191.50;6186999;23;20408;-77
2023/12/19 14:25:13;;;;;;;13.52;10.10;;;;;;;6.68;71.22;97185.50;6186484;23;20021;-78
2023/12/19 14:27:40;;;;;;;10.23;8.75;;;;;;;6.59;69.96;97193.16;6185914;23;20029;-78
2023/12/19 14:30:09;;;;;;;12.85;10.25;;;;;;;6.54;70.19;97192.78;6185833;23;20024;-79
2023/12/19 14:32:38;;;;;;;13.93;9.38;;;;;;;6.50;68.58;97180.25;6186544;23;20340;-76
2023/12/19 14:35:08;;;;;;;13.73;10.48;;;;;;;6.47;70.82;97181.34;6186071;23;20361;-78
2023/12/19 14:37:36;;;;;;;12.57;10.00;;;;;;;6.48;72.12;97172.59;6186079;23;20021;-78
2023/12/19 14:40:07;;;;;;;14.25;10.25;;;;;;;6.44;73.87;97171.25;6185703;23;20028;-78
2023/12/19 14:42:35;;;;;;;12.73;10.10;;;;;;;6.46;73.98;97163.34;6186599;23;20017;-78
2023/12/19 14:45:03;;;;;;;14.98;11.18;;;;;;;6.48;74.47;97164.81;6186612;23;20414;-77
2023/12/19 14:47:31;;;;;;;12.20;9.60;;;;;;;6.48;72.71;97162.25;6186156;23;20363;-78
2023/12/19 14:49:58;;;;;;;12.68;9.73;;;;;;;6.44;71.65;97162.66;6186169;23;20017;-78
2023/12/19 14:52:26;;;;;;;13.98;10.70;;;;;;;6.41;73.51;97153.41;6193222;23;20081;-78
2023/12/19 14:54:55;;;;;;;13.68;10.82;;;;;;;6.41;74.60;97150.81;6201564;23;20029;-78
2023/12/19 14:57:25;;;;;;;12.90;9.90;;;;;;;6.37;71.56;97152.84;6199245;23;20632;-78
2023/12/19 14:59:53;;;;;;;15.15;10.60;;;;;;;6.29;70.82;97144.97;6185760;23;20027;-78
2023/12/19 15:02:21;;;;;;;15.32;11.63;;;;;;;6.29;73.69;97154.53;6185872;23;20060;-78
2023/12/19 15:04:49;;;;;;;15.60;11.57;;;;;;;6.28;74.67;97152.91;6185899;23;20025;-78
2023/12/19 15:07:17;;;;;;;14.15;10.85;;;;;;;6.28;74.87;97145.13;6186358;23;20021;-78
2023/12/19 15:09:44;;;;;;;14.18;11.68;;;;;;;6.25;74.69;97150.56;6185968;23;20028;-77
2023/12/19 15:12:12;;;;;;;14.93;11.15;;;;;;;6.22;74.68;97137.91;6185830;23;20020;-77
2023/12/19 15:14:41;;;;;;;14.68;11.40;;;;;;;6.13;74.72;97148.16;6186960;23;20020;-76
2023/12/19 15:17:09;;;;;;;16.52;11.65;;;;;;;6.12;74.77;97150.88;6186062;23;20021;-78
2023/12/19 15:19:37;;;;;;;14.68;10.93;;;;;;;6.07;72.52;97146.13;6185696;23;20021;-78
2023/12/19 15:22:05;;;;;;;15.90;11.68;;;;;;;6.06;74.65;97162.63;6186226;23;20463;-78
2023/12/19 15:24:34;;;;;;;13.13;9.88;;;;;;;6.01;72.52;97162.22;6185638;23;20084;-78
2023/12/19 15:27:05;;;;;;;13.98;10.40;;;;;;;5.91;72.20;97159.63;6185803;23;20021;-78
2023/12/19 15:29:33;;;;;;;14.43;10.43;;;;;;;5.85;72.07;97164.53;6186234;23;20021;-78
2023/12/19 15:32:02;;;;;;;13.63;10.52;;;;;;;5.80;71.88;97170.13;6186615;23;20017;-78
2023/12/19 15:34:30;;;;;;;11.52;8.82;;;;;;;5.77;70.05;97160.88;6186817;23;20021;-78
2023/12/19 15:36:58;;;;;;;11.73;9.43;;;;;;;5.71;69.78;97148.47;6187345;23;20095;-78
2023/12/19 15:39:26;;;;;;;13.23;9.23;;;;;;;5.70;71.71;97149.41;6186597;23;20399;-78
2023/12/19 15:41:54;;;;;;;13.70;9.27;;;;;;;5.69;71.40;97150.38;6185639;23;20021;-78
2023/12/19 15:44:22;;;;;;;14.10;10.00;;;;;;;5.67;70.07;97157.47;6186501;23;20029;-78
2023/12/19 15:46:49;;;;;;;13.90;10.05;;;;;;;5.67;71.96;97152.28;6185517;23;20067;-78
2023/12/19 15:49:18;;;;;;;15.70;10.95;;;;;;;5.72;74.16;97159.63;6185478;23;20340;-78
2023/12/19 15:51:46;;;;;;;14.57;10.15;;;;;;;5.70;73.42;97149.41;6185805;23;20047;-77
2023/12/19 15:54:16;;;;;;;12.93;10.13;;;;;;;5.69;74.47;97150.38;6196385;23;20032;-78
2023/12/19 15:56:44;;;;;;;15.73;10.35;;;;;;;5.70;74.44;97149.41;6187839;23;20029;-78
2023/12/19 15:59:12;;;;;;;14.68;11.00;;;;;;;5.72;75.11;97147.50;6185262;23;20029;-78
2023/12/19 16:01:40;;;;;;;16.40;11.15;;;;;;;5.74;75.06;97153.38;6185803;23;20024;-78
2023/12/19 16:04:08;;;;;;;15.30;11.02;;;;;;;5.71;74.76;97156.25;6185650;23;20347;-78
2023/12/19 16:06:38;;;;;;;13.05;9.85;;;;;;;5.66;75.33;97155.00;6191915;22;20115;-75
2023/12/19 16:09:06;;;;;;;14.10;10.40;;;;;;;5.62;75.06;97149.31;6215236;23;20095;-75
2023/12/19 16:11:35;;;;;;;15.02;10.82;;;;;;;5.58;74.85;97153.94;6214772;23;20079;-75
2023/12/19 16:14:03;;;;;;;14.93;10.07;;;;;;;5.52;72.95;97151.06;6214766;23;20363;-75
2023/12/19 16:16:32;;;;;;;13.65;9.45;;;;;;;5.47;71.98;97146.31;6214574;23;20036;-76
2023/12/19 16:19:03;;;;;;;13.30;10.38;;;;;;;5.48;74.01;97149.69;6214541;23;20021;-76
2023/12/19 16:21:31;;;;;;;12.50;8.60;;;;;;;5.48;74.12;97144.53;6214982;23;20075;-76
2023/12/19 16:24:00;;;;;;;12.65;9.18;;;;;;;5.44;72.63;97154.31;6214939;23;20021;-76
2023/12/19 16:26:31;;;;;;;11.90;8.88;;;;;;;5.39;71.15;97145.34;6214837;23;20032;-76
2023/12/19 16:29:00;;;;;;;12.77;8.73;;;;;;;5.33;72.64;97144.09;6214022;23;20494;-74
2023/12/19 16:31:28;;;;;;;10.93;8.02;;;;;;;5.32;73.14;97148.47;6215055;23;20050;-75